createdAt,value
2022-11-29T00:00:50.095Z,3.15
2022-11-29T00:03:21.107Z,3.17
2022-11-29T00:05:48.371Z,3.17
2022-11-29T00:08:15.312Z,3.02
2022-11-29T00:10:42.450Z,3.15
2022-11-29T00:13:09.530Z,3.15
2022-11-29T00:15:39.219Z,3.08
2022-11-29T00:18:07.141Z,3.11
2022-11-29T00:20:34.882Z,3.11
2022-11-29T00:23:02.237Z,3.10
2022-11-29T00:25:29.463Z,3.08
2022-11-29T00:27:56.471Z,3.05
2022-11-29T00:30:23.829Z,3.04
2022-11-29T00:32:52.233Z,3.01
2022-11-29T00:35:19.499Z,2.98
2022-11-29T00:37:46.247Z,2.93
2022-11-29T00:40:13.476Z,2.88
2022-11-29T00:42:40.357Z,2.86
2022-11-29T00:45:08.485Z,2.92
2022-11-29T00:47:35.433Z,2.88
2022-11-29T00:50:04.767Z,2.90
2022-11-29T00:52:31.875Z,2.86
2022-11-29T00:54:59.185Z,2.83
2022-11-29T00:57:26.075Z,2.78
2022-11-29T00:59:53.216Z,2.73
2022-11-29T01:02:20.144Z,2.76
2022-11-29T01:04:47.522Z,2.75
2022-11-29T01:07:16.015Z,2.75
2022-11-29T01:09:43.471Z,2.79
2022-11-29T01:12:10.482Z,2.85
2022-11-29T01:14:37.944Z,2.88
2022-11-29T01:17:04.847Z,2.90
2022-11-29T01:19:32.243Z,2.91
2022-11-29T01:21:59.310Z,2.91
2022-11-29T01:24:29.718Z,2.91
2022-11-29T01:26:56.695Z,2.88
2022-11-29T01:29:23.893Z,2.87
2022-11-29T01:31:50.849Z,2.87
2022-11-29T01:34:18.235Z,2.86
2022-11-29T01:36:45.311Z,2.81
2022-11-29T01:39:12.466Z,2.83
2022-11-29T01:41:40.714Z,2.82
2022-11-29T01:44:46.851Z,2.84
2022-11-29T01:47:13.987Z,2.80
2022-11-29T01:49:44.120Z,2.78
2022-11-29T01:52:15.084Z,2.77
2022-11-29T01:54:46.332Z,2.68
2022-11-29T01:57:15.390Z,2.71
2022-11-29T01:59:45.701Z,2.68
2022-11-29T02:02:15.181Z,2.67
2022-11-29T02:04:45.463Z,2.69
2022-11-29T02:07:12.899Z,2.68
2022-11-29T02:09:40.143Z,2.67
2022-11-29T02:12:21.348Z,2.69
2022-11-29T02:15:05.415Z,2.71
2022-11-29T02:17:43.488Z,2.73
2022-11-29T02:21:03.443Z,2.71
2022-11-29T02:23:51.254Z,2.66
2022-11-29T02:26:34.457Z,2.60
2022-11-29T02:29:31.280Z,2.59
2022-11-29T02:32:34.262Z,2.58
2022-11-29T02:35:18.116Z,2.53
2022-11-29T02:38:06.389Z,2.56
2022-11-29T02:40:55.552Z,2.55
2022-11-29T02:43:57.852Z,2.53
2022-11-29T02:46:48.214Z,2.46
2022-11-29T02:49:26.032Z,2.48
2022-11-29T02:51:59.534Z,2.47
2022-11-29T02:54:34.845Z,2.57
2022-11-29T02:57:07.253Z,2.62
2022-11-29T02:59:45.603Z,2.61
2022-11-29T03:02:21.568Z,2.54
2022-11-29T03:04:53.780Z,2.60
2022-11-29T03:07:30.320Z,2.57
2022-11-29T03:10:03.601Z,2.51
2022-11-29T03:12:38.353Z,2.47
2022-11-29T03:15:19.225Z,2.43
2022-11-29T03:18:08.007Z,2.38
2022-11-29T03:20:38.448Z,2.34
2022-11-29T03:23:15.099Z,2.30
2022-11-29T03:25:46.228Z,2.23
2022-11-29T03:28:18.761Z,2.25
2022-11-29T03:30:55.598Z,2.22
2022-11-29T03:33:30.808Z,2.19
2022-11-29T03:36:05.787Z,2.13
2022-11-29T03:38:40.054Z,2.10
2022-11-29T03:41:17.825Z,2.09
2022-11-29T03:43:50.400Z,2.10
2022-11-29T03:46:25.341Z,2.07
2022-11-29T03:48:59.666Z,2.02
2022-11-29T03:51:38.844Z,2.00
2022-11-29T03:54:12.853Z,2.02
2022-11-29T03:56:40.959Z,2.03
2022-11-29T03:59:21.167Z,2.10
2022-11-29T04:02:16.718Z,2.04
2022-11-29T04:05:09.291Z,2.11
2022-11-29T04:07:51.370Z,2.12
2022-11-29T04:10:37.370Z,2.14
2022-11-29T04:13:29.230Z,2.16
2022-11-29T04:16:25.265Z,2.18
2022-11-29T04:19:20.757Z,2.19
2022-11-29T04:22:10.677Z,2.14
2022-11-29T04:25:32.149Z,2.13
2022-11-29T04:28:16.082Z,2.10
2022-11-29T04:30:59.786Z,2.05
2022-11-29T04:33:58.428Z,1.99
2022-11-29T04:37:01.510Z,2.03
2022-11-29T04:39:48.980Z,1.94
2022-11-29T04:42:46.624Z,1.86
2022-11-29T04:45:53.513Z,1.83
2022-11-29T04:48:39.167Z,1.85
2022-11-29T04:51:17.290Z,1.87
2022-11-29T04:53:58.328Z,1.88
2022-11-29T04:56:32.860Z,1.90
2022-11-29T04:59:07.610Z,1.88
2022-11-29T05:01:45.906Z,1.82
2022-11-29T05:04:20.935Z,1.83
2022-11-29T05:06:58.692Z,1.79
2022-11-29T05:09:38.387Z,1.73
2022-11-29T05:12:14.401Z,1.76
2022-11-29T05:15:00.945Z,1.82
2022-11-29T05:17:36.705Z,1.86
2022-11-29T05:20:21.435Z,1.86
2022-11-29T05:23:00.147Z,1.84
2022-11-29T05:25:35.325Z,1.84
2022-11-29T05:28:10.387Z,1.87
2022-11-29T05:31:06.489Z,1.85
2022-11-29T05:33:49.756Z,1.77
2022-11-29T05:36:27.259Z,1.77
2022-11-29T05:39:12.328Z,1.67
2022-11-29T05:41:57.608Z,1.68
2022-11-29T05:44:32.522Z,1.70
2022-11-29T05:47:02.573Z,1.75
2022-11-29T05:49:40.212Z,1.76
2022-11-29T05:52:21.875Z,1.82
2022-11-29T05:55:02.452Z,1.83
2022-11-29T05:57:38.747Z,1.85
2022-11-29T06:00:10.658Z,1.76
2022-11-29T06:02:52.201Z,1.97
2022-11-29T06:05:28.867Z,1.95
2022-11-29T06:08:02.691Z,1.94
2022-11-29T06:10:33.864Z,1.94
2022-11-29T06:13:11.408Z,1.91
2022-11-29T06:16:02.781Z,1.90
2022-11-29T06:18:54.512Z,1.94
2022-11-29T06:21:30.689Z,1.96
2022-11-29T06:24:25.930Z,1.99
2022-11-29T06:27:25.616Z,2.01
2022-11-29T06:30:02.227Z,2.05
2022-11-29T06:32:34.501Z,2.08
2022-11-29T06:35:08.079Z,2.08
2022-11-29T06:37:39.146Z,2.13
2022-11-29T06:40:10.828Z,2.22
2022-11-29T06:42:37.793Z,2.17
2022-11-29T06:45:06.191Z,2.12
2022-11-29T06:47:40.949Z,2.09
2022-11-29T06:50:25.208Z,2.08
2022-11-29T06:52:59.323Z,2.20
2022-11-29T06:55:38.192Z,2.26
2022-11-29T06:58:17.208Z,2.26
2022-11-29T07:00:56.504Z,2.38
2022-11-29T07:03:56.269Z,2.50
2022-11-29T07:06:27.826Z,2.67
2022-11-29T08:29:13.144Z,4.44
2022-11-29T08:31:40.460Z,4.56
2022-11-29T08:34:08.278Z,4.75
2022-11-29T08:36:35.477Z,4.96
2022-11-29T08:39:08.978Z,5.30
2022-11-29T08:41:36.923Z,5.36
2022-11-29T08:44:05.024Z,5.21
2022-11-29T08:46:52.336Z,5.28
2022-11-29T08:49:19.285Z,5.29
2022-11-29T08:51:46.552Z,5.29
2022-11-29T08:54:13.510Z,5.42
2022-11-29T08:59:27.567Z,5.58
2022-11-29T09:01:56.195Z,5.84
2022-11-29T09:04:23.263Z,5.78
2022-11-29T09:06:50.655Z,5.92
2022-11-29T09:09:17.789Z,5.93
2022-11-29T09:11:49.245Z,5.84
2022-11-29T09:14:17.779Z,5.72
2022-11-29T09:16:45.139Z,5.58
2022-11-29T09:19:14.768Z,5.51
2022-11-29T09:21:41.959Z,5.51
2022-11-29T09:24:10.390Z,5.47
2022-11-29T09:26:38.168Z,5.55
2022-11-29T09:29:06.650Z,5.64
2022-11-29T09:31:35.034Z,5.78
2022-11-29T09:34:02.388Z,5.86
2022-11-29T09:36:31.367Z,5.97
2022-11-29T09:38:59.555Z,6.13
2022-11-29T09:41:48.647Z,6.25
2022-11-29T09:44:19.493Z,6.39
2022-11-29T09:46:58.855Z,6.54
2022-11-29T09:49:41.087Z,6.75
2022-11-29T09:52:22.412Z,6.74
2022-11-29T09:54:56.965Z,6.86
2022-11-29T09:57:26.984Z,6.89
2022-11-29T09:59:58.953Z,7.29
2022-11-29T10:02:36.104Z,7.38
2022-11-29T10:05:10.466Z,7.49
2022-11-29T10:07:46.278Z,7.56
2022-11-29T10:10:18.426Z,7.65
2022-11-29T10:12:50.480Z,7.74
2022-11-29T10:15:21.578Z,8.01
2022-11-29T10:17:54.621Z,8.09
2022-11-29T10:20:24.634Z,8.09
2022-11-29T10:22:57.402Z,8.07
2022-11-29T10:25:26.235Z,8.21
2022-11-29T10:27:53.941Z,8.20
2022-11-29T10:30:21.292Z,8.19
2022-11-29T10:32:56.128Z,8.30
2022-11-29T10:35:23.399Z,8.10
2022-11-29T10:38:28.660Z,8.07
2022-11-29T10:40:46.952Z,8.28
2022-11-29T10:43:14.213Z,8.51
2022-11-29T10:45:50.031Z,8.41
2022-11-29T10:48:20.042Z,8.36
2022-11-29T10:50:49.272Z,8.32
2022-11-29T10:53:22.677Z,8.42
2022-11-29T10:55:54.915Z,8.58
2022-11-29T10:58:28.308Z,8.66
2022-11-29T11:00:58.337Z,8.77
2022-11-29T11:03:33.551Z,8.77
2022-11-29T11:06:04.304Z,8.84
2022-11-29T11:08:34.329Z,8.99
2022-11-29T11:11:03.256Z,8.93
2022-11-29T11:13:32.206Z,8.84
2022-11-29T11:16:09.827Z,8.62
2022-11-29T11:18:37.889Z,8.56
2022-11-29T11:21:09.436Z,8.39
2022-11-29T11:23:45.392Z,8.43
2022-11-29T11:26:14.629Z,8.52
2022-11-29T11:28:48.500Z,8.73
2022-11-29T11:31:16.387Z,8.86
2022-11-29T11:33:45.670Z,8.91
2022-11-29T11:36:15.343Z,8.79
2022-11-29T11:38:52.042Z,8.80
2022-11-29T11:41:23.505Z,8.84
2022-11-29T11:43:56.354Z,8.79
2022-11-29T11:46:23.831Z,8.65
2022-11-29T11:48:51.702Z,8.53
2022-11-29T11:51:23.250Z,8.52
2022-11-29T11:53:55.680Z,8.50
2022-11-29T11:56:24.223Z,8.60
2022-11-29T11:58:54.189Z,8.53
2022-11-29T12:01:28.684Z,8.50
2022-11-29T12:04:02.477Z,8.54
2022-11-29T12:06:37.274Z,8.51
2022-11-29T12:09:16.476Z,8.45
2022-11-29T12:11:49.662Z,8.57
2022-11-29T12:14:25.651Z,8.57
2022-11-29T12:17:15.457Z,8.62
2022-11-29T12:19:58.915Z,8.54
2022-11-29T12:22:30.649Z,8.47
2022-11-29T12:25:05.495Z,8.55
2022-11-29T12:27:32.377Z,8.49
2022-11-29T12:30:00.085Z,8.41
2022-11-29T12:32:51.712Z,8.39
2022-11-29T12:35:39.348Z,8.46
2022-11-29T12:38:15.878Z,8.44
2022-11-29T12:40:53.441Z,8.51
2022-11-29T12:43:30.505Z,8.53
2022-11-29T12:46:04.686Z,8.46
2022-11-29T12:48:41.036Z,8.49
2022-11-29T12:51:19.822Z,8.49
2022-11-29T12:54:02.306Z,8.45
2022-11-29T12:56:38.515Z,8.48
2022-11-29T12:59:22.188Z,8.46
2022-11-29T13:02:03.836Z,8.44
2022-11-29T13:04:39.006Z,8.60
2022-11-29T13:07:14.733Z,8.71
2022-11-29T13:09:56.322Z,8.78
2022-11-29T13:12:33.124Z,8.87
2022-11-29T13:15:05.339Z,8.85
2022-11-29T13:17:39.633Z,8.86
2022-11-29T13:20:20.885Z,8.89
2022-11-29T13:22:56.137Z,8.83
2022-11-29T13:25:27.558Z,8.83
2022-11-29T13:28:00.138Z,8.84
2022-11-29T13:30:27.344Z,8.74
2022-11-29T13:33:04.218Z,8.64
2022-11-29T13:35:38.807Z,8.55
2022-11-29T13:38:18.585Z,8.52
2022-11-29T13:40:57.046Z,8.45
2022-11-29T13:43:36.686Z,8.37
2022-11-29T13:46:16.435Z,8.33
2022-11-29T13:48:49.952Z,8.25
2022-11-29T13:51:28.833Z,8.15
2022-11-29T13:53:57.921Z,8.06
2022-11-29T13:56:33.461Z,7.98
2022-11-29T13:59:06.888Z,7.88
2022-11-29T14:01:44.178Z,7.77
2022-11-29T14:04:26.509Z,7.71
2022-11-29T14:07:04.176Z,7.58
2022-11-29T14:09:41.097Z,7.52
2022-11-29T14:12:26.859Z,7.49
2022-11-29T14:15:00.297Z,7.41
2022-11-29T14:17:48.651Z,7.37
2022-11-29T14:20:45.773Z,7.32
2022-11-29T14:23:29.619Z,7.35
2022-11-29T14:26:28.116Z,7.30
2022-11-29T14:28:55.861Z,7.16
2022-11-29T14:31:55.508Z,7.06
2022-11-29T14:34:42.535Z,7.04
2022-11-29T14:37:29.934Z,7.06
2022-11-29T14:39:59.907Z,7.04
2022-11-29T14:42:28.403Z,7.15
2022-11-29T14:45:06.289Z,7.20
2022-11-29T14:47:37.166Z,7.15
2022-11-29T14:50:09.211Z,7.07
2022-11-29T14:52:39.069Z,7.07
2022-11-29T14:55:25.645Z,7.08
2022-11-29T14:57:55.069Z,7.11
2022-11-29T15:00:23.599Z,7.10
2022-11-29T15:02:56.413Z,7.01
2022-11-29T15:05:30.893Z,6.96
2022-11-29T15:08:09.090Z,6.88
2022-11-29T15:10:40.149Z,6.74
2022-11-29T15:13:12.403Z,6.64
2022-11-29T15:15:58.458Z,6.48
2022-11-29T15:18:51.169Z,6.35
2022-11-29T15:21:31.507Z,6.23
2022-11-29T15:24:03.116Z,6.16
2022-11-29T15:26:31.026Z,6.03
2022-11-29T15:29:13.384Z,5.89
2022-11-29T15:31:41.512Z,5.78
2022-11-29T15:34:20.319Z,5.63
2022-11-29T15:36:47.811Z,5.59
2022-11-29T15:39:30.570Z,5.48
2022-11-29T15:42:02.197Z,5.43
2022-11-29T15:44:32.591Z,5.38
2022-11-29T15:47:16.405Z,5.36
2022-11-29T15:49:45.317Z,5.33
2022-11-29T15:52:20.562Z,5.32
2022-11-29T15:54:52.017Z,5.40
2022-11-29T15:57:24.985Z,5.46
2022-11-29T15:59:55.442Z,5.50
2022-11-29T16:02:25.108Z,5.45
2022-11-29T16:04:57.427Z,5.43
2022-11-29T16:07:27.540Z,5.49
2022-11-29T16:09:59.192Z,5.57
2022-11-29T16:12:26.737Z,5.63
2022-11-29T16:14:56.526Z,5.53
2022-11-29T16:17:25.997Z,5.50
2022-11-29T16:20:05.240Z,5.48
2022-11-29T16:22:32.500Z,5.46
2022-11-29T16:25:07.994Z,5.43
2022-11-29T16:27:35.976Z,5.40
2022-11-29T16:30:07.520Z,5.36
2022-11-29T16:32:38.321Z,5.36
2022-11-29T16:35:12.531Z,5.32
2022-11-29T16:37:46.282Z,5.29
2022-11-29T16:40:24.626Z,5.36
2022-11-29T16:43:08.118Z,5.24
2022-11-29T16:45:37.064Z,5.40
2022-11-29T16:48:28.580Z,5.37
2022-11-29T16:51:25.442Z,5.37
2022-11-29T16:53:53.772Z,5.29
2022-11-29T16:56:24.601Z,5.30
2022-11-29T16:59:25.498Z,5.28
2022-11-29T17:01:41.030Z,5.31
2022-11-29T17:04:09.328Z,5.36
2022-11-29T17:06:38.205Z,5.39
2022-11-29T17:09:05.603Z,5.45
2022-11-29T17:11:32.947Z,5.52
2022-11-29T17:13:59.883Z,5.62
2022-11-29T17:16:27.103Z,5.71
2022-11-29T17:18:54.256Z,5.64
2022-11-29T17:21:24.007Z,5.69
2022-11-29T17:23:53.388Z,5.67
2022-11-29T17:26:21.743Z,5.73
2022-11-29T17:28:50.376Z,5.77
2022-11-29T17:31:20.187Z,5.76
2022-11-29T17:33:48.665Z,5.68
2022-11-29T17:36:19.290Z,5.59
2022-11-29T17:38:46.768Z,5.52
2022-11-29T17:41:16.586Z,5.48
2022-11-29T17:43:43.694Z,5.44
2022-11-29T17:46:13.096Z,5.42
2022-11-29T17:48:40.299Z,5.45
2022-11-29T17:51:28.803Z,5.46
2022-11-29T17:53:54.958Z,5.60
2022-11-29T17:56:24.962Z,5.72
2022-11-29T17:58:53.068Z,5.77
2022-11-29T18:01:21.809Z,5.76
2022-11-29T18:03:51.752Z,5.70
2022-11-29T18:06:20.668Z,5.65
2022-11-29T18:08:50.755Z,5.60
2022-11-29T18:11:21.518Z,5.58
2022-11-29T18:13:50.506Z,5.59
2022-11-29T18:16:19.955Z,5.51
2022-11-29T18:18:47.840Z,5.45
2022-11-29T18:21:19.963Z,5.44
2022-11-29T18:23:50.865Z,5.40
2022-11-29T18:26:20.270Z,5.33
2022-11-29T18:28:47.549Z,5.44
2022-11-29T18:31:18.939Z,5.45
2022-11-29T18:33:48.217Z,5.42
2022-11-29T18:36:17.416Z,5.45
2022-11-29T18:38:45.697Z,5.51
2022-11-29T18:41:15.771Z,5.57
2022-11-29T18:43:43.062Z,5.58
2022-11-29T18:46:11.995Z,5.51
2022-11-29T18:48:41.216Z,5.59
2022-11-29T18:51:10.279Z,5.67
2022-11-29T18:53:38.126Z,5.76
2022-11-29T18:56:07.760Z,5.81
2022-11-29T18:58:34.767Z,5.74
2022-11-29T19:01:07.186Z,5.77
2022-11-29T19:03:35.895Z,5.82
2022-11-29T19:06:07.476Z,5.79
2022-11-29T19:08:34.747Z,5.85
2022-11-29T19:11:04.664Z,5.80
2022-11-29T19:13:31.859Z,5.82
2022-11-29T19:15:59.710Z,5.81
2022-11-29T19:18:26.763Z,5.87
2022-11-29T19:20:53.972Z,5.89
2022-11-29T19:23:22.708Z,5.89
2022-11-29T19:25:50.414Z,5.91
2022-11-29T19:28:18.576Z,5.91
2022-11-29T19:30:54.122Z,5.93
2022-11-29T19:33:21.075Z,5.96
2022-11-29T19:35:48.154Z,5.98
2022-11-29T19:38:15.468Z,5.99
2022-11-29T19:40:44.050Z,5.99
2022-11-29T19:43:11.194Z,6.00
2022-11-29T19:45:39.277Z,6.00
2022-11-29T19:48:06.697Z,6.00
2022-11-29T19:50:33.886Z,6.00
2022-11-29T19:53:00.770Z,5.94
2022-11-29T19:55:27.977Z,5.92
2022-11-29T19:57:56.718Z,5.92
2022-11-29T20:00:23.986Z,5.94
2022-11-29T20:02:51.417Z,5.94
2022-11-29T20:05:18.831Z,5.93
2022-11-29T20:07:45.903Z,5.86
2022-11-29T20:10:13.122Z,5.79
2022-11-29T20:12:40.046Z,5.75
2022-11-29T20:15:09.368Z,5.74
2022-11-29T20:17:36.076Z,5.72
2022-11-29T20:20:04.143Z,5.69
2022-11-29T20:22:30.982Z,5.70
2022-11-29T20:24:58.237Z,5.63
2022-11-29T20:27:25.139Z,5.60
2022-11-29T20:29:52.458Z,5.44
2022-11-29T20:32:22.155Z,5.41
2022-11-29T20:34:50.053Z,5.42
2022-11-29T20:37:30.467Z,5.47
2022-11-29T20:40:00.538Z,5.49
2022-11-29T20:42:44.624Z,5.49
2022-11-29T20:45:13.701Z,5.33
2022-11-29T20:47:49.135Z,5.38
2022-11-29T20:50:22.870Z,5.31
2022-11-29T20:53:01.120Z,5.32
2022-11-29T20:55:28.439Z,5.36
2022-11-29T20:57:55.410Z,5.39
2022-11-29T21:00:22.967Z,5.38
2022-11-29T21:02:51.229Z,5.39
2022-11-29T21:05:18.382Z,5.24
2022-11-29T21:07:45.831Z,5.21
2022-11-29T21:10:16.402Z,5.25
2022-11-29T21:12:45.659Z,5.29
2022-11-29T21:15:14.492Z,5.29
2022-11-29T21:17:42.931Z,5.32
2022-11-29T21:20:18.329Z,5.37
2022-11-29T21:22:52.877Z,5.32
2022-11-29T21:25:24.990Z,5.10
2022-11-29T21:27:54.436Z,4.93
2022-11-29T21:30:24.273Z,4.81
2022-11-29T21:32:52.130Z,4.74
2022-11-29T21:35:23.332Z,4.97
2022-11-29T21:37:54.434Z,5.06
2022-11-29T21:40:21.663Z,5.16
2022-11-29T21:42:48.532Z,5.21
2022-11-29T21:45:16.276Z,5.23
2022-11-29T21:47:44.127Z,5.15
2022-11-29T21:50:12.276Z,4.98
2022-11-29T21:52:40.541Z,4.91
2022-11-29T21:55:08.608Z,4.97
2022-11-29T21:57:35.684Z,5.07
2022-11-29T22:00:03.939Z,5.17
2022-11-29T22:02:30.920Z,5.22
2022-11-29T22:04:58.279Z,5.23
2022-11-29T22:07:25.198Z,5.23
2022-11-29T22:09:53.762Z,5.22
2022-11-29T22:12:33.721Z,5.23
2022-11-29T22:15:01.900Z,5.23
2022-11-29T22:17:28.767Z,5.21
2022-11-29T22:19:55.920Z,5.15
2022-11-29T22:22:25.042Z,5.15
2022-11-29T22:24:55.737Z,5.07
2022-11-29T22:27:22.661Z,4.92
2022-11-29T22:29:50.276Z,4.73
2022-11-29T22:32:17.254Z,4.65
2022-11-29T22:34:44.759Z,4.54
2022-11-29T22:37:12.501Z,4.46
2022-11-29T22:39:39.629Z,4.43
2022-11-29T22:42:07.881Z,4.38
2022-11-29T22:44:35.083Z,4.30
2022-11-29T22:47:02.192Z,4.30
2022-11-29T22:49:30.024Z,4.29
2022-11-29T22:51:56.893Z,4.32
2022-11-29T22:54:24.085Z,4.29
2022-11-29T22:56:52.233Z,4.28
2022-11-29T22:59:20.786Z,4.20
2022-11-29T23:01:47.959Z,4.24
2022-11-29T23:04:15.717Z,4.29
2022-11-29T23:06:43.866Z,4.16
2022-11-29T23:09:16.251Z,4.16
2022-11-29T23:11:46.231Z,4.18
2022-11-29T23:14:13.886Z,4.23
2022-11-29T23:16:42.264Z,4.22
2022-11-29T23:19:10.145Z,4.08
2022-11-29T23:21:38.791Z,4.05
2022-11-29T23:24:06.511Z,3.95
2022-11-29T23:26:39.641Z,3.91
2022-11-29T23:29:08.912Z,3.90
2022-11-29T23:31:35.916Z,3.94
2022-11-29T23:34:04.477Z,3.99
2022-11-29T23:36:31.601Z,3.99
2022-11-29T23:38:58.935Z,4.05
2022-11-29T23:41:25.894Z,4.08
2022-11-29T23:43:53.091Z,4.11
2022-11-29T23:46:21.502Z,4.18
2022-11-29T23:48:49.107Z,4.24
2022-11-29T23:51:18.167Z,4.26
2022-11-29T23:53:46.747Z,4.22
2022-11-29T23:56:15.824Z,4.19
2022-11-29T23:58:43.915Z,4.20
